sensor_id;sensor_type;location;lat;lon;timestamp;P1;durP1;ratioP1;P2;durP2;ratioP2
35632;SDS011;21754;48.216;-1.628;2022-10-22T00:01:59;13.95;;;2.15;;
35632;SDS011;21754;48.216;-1.628;2022-10-22T00:04:25;11.07;;;2.50;;
35632;SDS011;21754;48.216;-1.628;2022-10-22T00:06:51;15.23;;;2.85;;
35632;SDS011;21754;48.216;-1.628;2022-10-22T00:09:17;11.40;;;2.05;;
35632;SDS011;21754;48.216;-1.628;2022-10-22T00:11:43;12.77;;;3.55;;
35632;SDS011;21754;48.216;-1.628;2022-10-22T00:14:09;7.30;;;2.28;;
35632;SDS011;21754;48.216;-1.628;2022-10-22T00:16:35;8.15;;;1.98;;
35632;SDS011;21754;48.216;-1.628;2022-10-22T00:19:01;10.45;;;1.75;;
35632;SDS011;21754;48.216;-1.628;2022-10-22T00:21:27;8.38;;;3.30;;
35632;SDS011;21754;48.216;-1.628;2022-10-22T00:23:54;21.92;;;3.03;;
35632;SDS011;21754;48.216;-1.628;2022-10-22T00:26:20;15.93;;;2.70;;
35632;SDS011;21754;48.216;-1.628;2022-10-22T00:28:47;6.60;;;1.98;;
35632;SDS011;21754;48.216;-1.628;2022-10-22T00:31:13;14.00;;;1.85;;
35632;SDS011;21754;48.216;-1.628;2022-10-22T00:33:39;23.40;;;2.97;;
35632;SDS011;21754;48.216;-1.628;2022-10-22T00:36:06;15.20;;;1.88;;
35632;SDS011;21754;48.216;-1.628;2022-10-22T00:38:32;19.20;;;2.65;;
35632;SDS011;21754;48.216;-1.628;2022-10-22T00:40:58;17.42;;;2.50;;
35632;SDS011;21754;48.216;-1.628;2022-10-22T00:43:25;16.73;;;2.80;;
35632;SDS011;21754;48.216;-1.628;2022-10-22T00:45:51;19.42;;;2.35;;
35632;SDS011;21754;48.216;-1.628;2022-10-22T00:48:22;23.92;;;3.53;;
35632;SDS011;21754;48.216;-1.628;2022-10-22T00:50:53;13.13;;;2.67;;
35632;SDS011;21754;48.216;-1.628;2022-10-22T00:55:55;27.20;;;2.50;;
35632;SDS011;21754;48.216;-1.628;2022-10-22T00:58:23;17.25;;;2.47;;
35632;SDS011;21754;48.216;-1.628;2022-10-22T01:00:50;17.83;;;4.13;;
35632;SDS011;21754;48.216;-1.628;2022-10-22T01:03:16;17.60;;;3.15;;
35632;SDS011;21754;48.216;-1.628;2022-10-22T01:05:48;22.23;;;1.92;;
35632;SDS011;21754;48.216;-1.628;2022-10-22T01:11:18;11.77;;;2.00;;
35632;SDS011;21754;48.216;-1.628;2022-10-22T01:13:48;23.85;;;2.95;;
35632;SDS011;21754;48.216;-1.628;2022-10-22T01:16:40;19.17;;;2.20;;
35632;SDS011;21754;48.216;-1.628;2022-10-22T01:21:39;13.90;;;2.40;;
35632;SDS011;21754;48.216;-1.628;2022-10-22T01:29:17;10.63;;;2.63;;
35632;SDS011;21754;48.216;-1.628;2022-10-22T01:31:52;9.23;;;2.17;;
35632;SDS011;21754;48.216;-1.628;2022-10-22T01:34:19;14.55;;;2.58;;
35632;SDS011;21754;48.216;-1.628;2022-10-22T01:36:47;20.42;;;2.80;;
35632;SDS011;21754;48.216;-1.628;2022-10-22T01:39:13;16.90;;;2.67;;
35632;SDS011;21754;48.216;-1.628;2022-10-22T01:41:42;11.63;;;4.80;;
35632;SDS011;21754;48.216;-1.628;2022-10-22T01:46:51;15.50;;;2.58;;
35632;SDS011;21754;48.216;-1.628;2022-10-22T01:49:26;16.85;;;2.38;;
35632;SDS011;21754;48.216;-1.628;2022-10-22T01:54:50;8.57;;;1.88;;
35632;SDS011;21754;48.216;-1.628;2022-10-22T02:02:20;26.75;;;3.90;;
35632;SDS011;21754;48.216;-1.628;2022-10-22T02:04:51;15.05;;;2.42;;
35632;SDS011;21754;48.216;-1.628;2022-10-22T02:07:19;17.33;;;1.98;;
35632;SDS011;21754;48.216;-1.628;2022-10-22T02:09:46;27.33;;;3.38;;
35632;SDS011;21754;48.216;-1.628;2022-10-22T02:12:13;17.23;;;2.37;;
35632;SDS011;21754;48.216;-1.628;2022-10-22T02:14:40;4.65;;;1.70;;
35632;SDS011;21754;48.216;-1.628;2022-10-22T02:17:08;14.05;;;2.13;;
35632;SDS011;21754;48.216;-1.628;2022-10-22T02:19:37;9.82;;;2.50;;
35632;SDS011;21754;48.216;-1.628;2022-10-22T02:22:06;12.77;;;2.83;;
35632;SDS011;21754;48.216;-1.628;2022-10-22T02:24:32;11.68;;;2.55;;
35632;SDS011;21754;48.216;-1.628;2022-10-22T02:32:14;19.52;;;3.10;;
35632;SDS011;21754;48.216;-1.628;2022-10-22T02:34:41;25.15;;;2.85;;
35632;SDS011;21754;48.216;-1.628;2022-10-22T02:37:07;14.52;;;3.63;;
35632;SDS011;21754;48.216;-1.628;2022-10-22T02:39:34;17.85;;;1.85;;
35632;SDS011;21754;48.216;-1.628;2022-10-22T02:42:01;11.55;;;2.17;;
35632;SDS011;21754;48.216;-1.628;2022-10-22T02:44:27;17.85;;;2.58;;
35632;SDS011;21754;48.216;-1.628;2022-10-22T02:46:53;18.77;;;2.72;;
35632;SDS011;21754;48.216;-1.628;2022-10-22T02:49:19;23.92;;;3.40;;
35632;SDS011;21754;48.216;-1.628;2022-10-22T02:51:45;18.27;;;2.85;;
35632;SDS011;21754;48.216;-1.628;2022-10-22T02:54:11;17.33;;;2.20;;
35632;SDS011;21754;48.216;-1.628;2022-10-22T02:56:37;13.90;;;2.85;;
35632;SDS011;21754;48.216;-1.628;2022-10-22T02:59:03;12.00;;;1.98;;
35632;SDS011;21754;48.216;-1.628;2022-10-22T03:01:29;17.75;;;4.15;;
35632;SDS011;21754;48.216;-1.628;2022-10-22T03:03:55;18.77;;;2.25;;
35632;SDS011;21754;48.216;-1.628;2022-10-22T03:06:21;18.42;;;3.45;;
35632;SDS011;21754;48.216;-1.628;2022-10-22T03:08:47;12.35;;;2.90;;
35632;SDS011;21754;48.216;-1.628;2022-10-22T03:11:13;13.85;;;2.67;;
35632;SDS011;21754;48.216;-1.628;2022-10-22T03:13:39;17.33;;;3.10;;
35632;SDS011;21754;48.216;-1.628;2022-10-22T03:16:05;18.08;;;2.38;;
35632;SDS011;21754;48.216;-1.628;2022-10-22T03:18:31;15.40;;;3.58;;
35632;SDS011;21754;48.216;-1.628;2022-10-22T03:21:03;16.80;;;2.67;;
35632;SDS011;21754;48.216;-1.628;2022-10-22T03:23:30;18.58;;;3.30;;
35632;SDS011;21754;48.216;-1.628;2022-10-22T03:25:57;16.50;;;1.88;;
35632;SDS011;21754;48.216;-1.628;2022-10-22T03:28:23;25.60;;;2.47;;
35632;SDS011;21754;48.216;-1.628;2022-10-22T03:30:50;29.60;;;6.10;;
35632;SDS011;21754;48.216;-1.628;2022-10-22T03:33:17;16.70;;;2.88;;
35632;SDS011;21754;48.216;-1.628;2022-10-22T03:35:43;9.32;;;2.85;;
35632;SDS011;21754;48.216;-1.628;2022-10-22T03:38:10;19.67;;;4.47;;
35632;SDS011;21754;48.216;-1.628;2022-10-22T03:40:36;32.92;;;4.22;;
35632;SDS011;21754;48.216;-1.628;2022-10-22T03:43:03;12.70;;;3.58;;
35632;SDS011;21754;48.216;-1.628;2022-10-22T03:45:29;13.90;;;2.33;;
35632;SDS011;21754;48.216;-1.628;2022-10-22T03:47:55;18.20;;;3.00;;
35632;SDS011;21754;48.216;-1.628;2022-10-22T03:50:21;15.68;;;3.30;;
35632;SDS011;21754;48.216;-1.628;2022-10-22T03:52:47;13.02;;;2.38;;
35632;SDS011;21754;48.216;-1.628;2022-10-22T03:55:13;11.23;;;2.58;;
35632;SDS011;21754;48.216;-1.628;2022-10-22T03:57:39;21.02;;;3.22;;
35632;SDS011;21754;48.216;-1.628;2022-10-22T04:00:06;22.33;;;3.20;;
35632;SDS011;21754;48.216;-1.628;2022-10-22T04:02:32;18.65;;;4.45;;
35632;SDS011;21754;48.216;-1.628;2022-10-22T04:04:58;13.57;;;3.20;;
35632;SDS011;21754;48.216;-1.628;2022-10-22T04:07:24;16.42;;;2.95;;
35632;SDS011;21754;48.216;-1.628;2022-10-22T04:09:50;9.07;;;3.88;;
35632;SDS011;21754;48.216;-1.628;2022-10-22T04:12:16;11.52;;;2.42;;
35632;SDS011;21754;48.216;-1.628;2022-10-22T04:14:42;11.27;;;1.85;;
35632;SDS011;21754;48.216;-1.628;2022-10-22T04:17:08;16.77;;;3.08;;
35632;SDS011;21754;48.216;-1.628;2022-10-22T04:19:34;13.40;;;2.53;;
35632;SDS011;21754;48.216;-1.628;2022-10-22T04:22:00;25.35;;;2.28;;
35632;SDS011;21754;48.216;-1.628;2022-10-22T04:24:26;16.98;;;2.78;;
35632;SDS011;21754;48.216;-1.628;2022-10-22T04:26:53;7.95;;;2.33;;
35632;SDS011;21754;48.216;-1.628;2022-10-22T04:29:19;22.70;;;3.80;;
35632;SDS011;21754;48.216;-1.628;2022-10-22T04:31:45;15.15;;;2.50;;
35632;SDS011;21754;48.216;-1.628;2022-10-22T04:34:11;12.27;;;3.50;;
35632;SDS011;21754;48.216;-1.628;2022-10-22T04:36:37;10.70;;;2.50;;
35632;SDS011;21754;48.216;-1.628;2022-10-22T04:39:03;18.60;;;2.05;;
35632;SDS011;21754;48.216;-1.628;2022-10-22T04:41:31;13.38;;;2.83;;
35632;SDS011;21754;48.216;-1.628;2022-10-22T04:43:57;13.25;;;2.22;;
35632;SDS011;21754;48.216;-1.628;2022-10-22T04:46:24;11.18;;;2.40;;
35632;SDS011;21754;48.216;-1.628;2022-10-22T04:48:50;14.70;;;3.65;;
35632;SDS011;21754;48.216;-1.628;2022-10-22T04:51:18;16.40;;;2.75;;
35632;SDS011;21754;48.216;-1.628;2022-10-22T04:53:45;20.58;;;1.95;;
35632;SDS011;21754;48.216;-1.628;2022-10-22T04:58:40;18.15;;;2.30;;
35632;SDS011;21754;48.216;-1.628;2022-10-22T05:01:13;14.10;;;3.00;;
35632;SDS011;21754;48.216;-1.628;2022-10-22T05:03:40;17.63;;;3.08;;
35632;SDS011;21754;48.216;-1.628;2022-10-22T05:06:06;17.88;;;2.80;;
35632;SDS011;21754;48.216;-1.628;2022-10-22T05:08:33;12.00;;;2.60;;
35632;SDS011;21754;48.216;-1.628;2022-10-22T05:10:59;12.55;;;3.28;;
35632;SDS011;21754;48.216;-1.628;2022-10-22T05:13:25;10.50;;;2.25;;
35632;SDS011;21754;48.216;-1.628;2022-10-22T05:15:51;19.50;;;3.00;;
35632;SDS011;21754;48.216;-1.628;2022-10-22T05:18:17;21.35;;;3.40;;
35632;SDS011;21754;48.216;-1.628;2022-10-22T05:20:43;18.92;;;3.38;;
35632;SDS011;21754;48.216;-1.628;2022-10-22T05:23:09;17.27;;;2.42;;
35632;SDS011;21754;48.216;-1.628;2022-10-22T05:25:36;11.70;;;2.50;;
35632;SDS011;21754;48.216;-1.628;2022-10-22T05:28:03;13.70;;;1.95;;
35632;SDS011;21754;48.216;-1.628;2022-10-22T05:30:29;10.93;;;1.92;;
35632;SDS011;21754;48.216;-1.628;2022-10-22T05:32:55;27.80;;;2.70;;
35632;SDS011;21754;48.216;-1.628;2022-10-22T05:35:21;24.55;;;2.45;;
35632;SDS011;21754;48.216;-1.628;2022-10-22T05:37:47;18.05;;;4.53;;
35632;SDS011;21754;48.216;-1.628;2022-10-22T05:40:13;20.17;;;2.40;;
35632;SDS011;21754;48.216;-1.628;2022-10-22T05:42:39;21.77;;;3.60;;
35632;SDS011;21754;48.216;-1.628;2022-10-22T05:45:05;18.40;;;2.15;;
35632;SDS011;21754;48.216;-1.628;2022-10-22T05:47:32;11.88;;;2.17;;
35632;SDS011;21754;48.216;-1.628;2022-10-22T05:49:58;10.57;;;1.92;;
35632;SDS011;21754;48.216;-1.628;2022-10-22T05:52:24;12.93;;;2.03;;
35632;SDS011;21754;48.216;-1.628;2022-10-22T05:54:50;19.73;;;3.50;;
35632;SDS011;21754;48.216;-1.628;2022-10-22T05:57:16;6.43;;;1.65;;
35632;SDS011;21754;48.216;-1.628;2022-10-22T05:59:42;18.40;;;3.40;;
35632;SDS011;21754;48.216;-1.628;2022-10-22T06:02:08;11.73;;;1.63;;
35632;SDS011;21754;48.216;-1.628;2022-10-22T06:04:34;22.30;;;3.03;;
35632;SDS011;21754;48.216;-1.628;2022-10-22T06:07:00;17.88;;;2.55;;
35632;SDS011;21754;48.216;-1.628;2022-10-22T06:09:28;8.77;;;2.60;;
35632;SDS011;21754;48.216;-1.628;2022-10-22T06:11:55;11.02;;;3.17;;
35632;SDS011;21754;48.216;-1.628;2022-10-22T06:14:21;17.25;;;3.20;;
35632;SDS011;21754;48.216;-1.628;2022-10-22T06:16:47;21.90;;;2.33;;
35632;SDS011;21754;48.216;-1.628;2022-10-22T06:19:14;18.08;;;3.00;;
35632;SDS011;21754;48.216;-1.628;2022-10-22T06:21:41;13.23;;;1.87;;
35632;SDS011;21754;48.216;-1.628;2022-10-22T06:24:08;20.15;;;2.78;;
35632;SDS011;21754;48.216;-1.628;2022-10-22T06:26:34;13.60;;;2.72;;
35632;SDS011;21754;48.216;-1.628;2022-10-22T06:29:00;6.95;;;1.70;;
35632;SDS011;21754;48.216;-1.628;2022-10-22T06:31:26;18.92;;;2.38;;
35632;SDS011;21754;48.216;-1.628;2022-10-22T06:33:53;13.65;;;1.90;;
35632;SDS011;21754;48.216;-1.628;2022-10-22T06:36:20;12.95;;;2.90;;
35632;SDS011;21754;48.216;-1.628;2022-10-22T06:38:46;16.67;;;3.72;;
35632;SDS011;21754;48.216;-1.628;2022-10-22T06:41:15;15.57;;;2.72;;
35632;SDS011;21754;48.216;-1.628;2022-10-22T06:43:42;25.92;;;5.82;;
35632;SDS011;21754;48.216;-1.628;2022-10-22T06:46:12;11.90;;;2.53;;
35632;SDS011;21754;48.216;-1.628;2022-10-22T06:48:38;19.83;;;2.85;;
35632;SDS011;21754;48.216;-1.628;2022-10-22T06:51:08;20.50;;;3.33;;
35632;SDS011;21754;48.216;-1.628;2022-10-22T06:53:35;7.45;;;1.75;;
35632;SDS011;21754;48.216;-1.628;2022-10-22T06:56:08;24.98;;;5.10;;
35632;SDS011;21754;48.216;-1.628;2022-10-22T06:58:34;18.08;;;2.20;;
35632;SDS011;21754;48.216;-1.628;2022-10-22T07:01:11;30.40;;;5.18;;
35632;SDS011;21754;48.216;-1.628;2022-10-22T07:03:37;26.13;;;4.13;;
35632;SDS011;21754;48.216;-1.628;2022-10-22T07:06:05;27.98;;;2.80;;
35632;SDS011;21754;48.216;-1.628;2022-10-22T07:08:31;16.50;;;4.28;;
35632;SDS011;21754;48.216;-1.628;2022-10-22T07:11:04;12.05;;;3.42;;
35632;SDS011;21754;48.216;-1.628;2022-10-22T07:13:30;13.35;;;2.97;;
35632;SDS011;21754;48.216;-1.628;2022-10-22T07:15:56;28.40;;;3.45;;
35632;SDS011;21754;48.216;-1.628;2022-10-22T07:18:22;26.48;;;5.00;;
35632;SDS011;21754;48.216;-1.628;2022-10-22T07:20:49;27.75;;;4.05;;
35632;SDS011;21754;48.216;-1.628;2022-10-22T07:23:15;17.23;;;3.72;;
35632;SDS011;21754;48.216;-1.628;2022-10-22T07:25:41;9.88;;;3.60;;
35632;SDS011;21754;48.216;-1.628;2022-10-22T07:28:07;21.35;;;5.05;;
35632;SDS011;21754;48.216;-1.628;2022-10-22T07:30:34;14.57;;;2.97;;
35632;SDS011;21754;48.216;-1.628;2022-10-22T07:33:00;20.23;;;5.20;;
35632;SDS011;21754;48.216;-1.628;2022-10-22T07:35:26;18.02;;;3.20;;
35632;SDS011;21754;48.216;-1.628;2022-10-22T07:37:52;26.95;;;5.47;;
35632;SDS011;21754;48.216;-1.628;2022-10-22T07:40:18;25.70;;;5.57;;
35632;SDS011;21754;48.216;-1.628;2022-10-22T07:42:44;12.82;;;4.00;;
35632;SDS011;21754;48.216;-1.628;2022-10-22T07:45:10;21.20;;;4.05;;
35632;SDS011;21754;48.216;-1.628;2022-10-22T07:47:36;25.13;;;4.15;;
35632;SDS011;21754;48.216;-1.628;2022-10-22T07:50:03;23.85;;;4.35;;
35632;SDS011;21754;48.216;-1.628;2022-10-22T07:54:56;24.65;;;5.03;;
35632;SDS011;21754;48.216;-1.628;2022-10-22T07:57:22;24.13;;;4.60;;
35632;SDS011;21754;48.216;-1.628;2022-10-22T07:59:48;22.73;;;5.97;;
35632;SDS011;21754;48.216;-1.628;2022-10-22T08:02:14;19.27;;;5.35;;
35632;SDS011;21754;48.216;-1.628;2022-10-22T08:04:40;14.93;;;5.03;;
35632;SDS011;21754;48.216;-1.628;2022-10-22T08:07:06;20.55;;;5.95;;
35632;SDS011;21754;48.216;-1.628;2022-10-22T08:09:32;24.55;;;6.50;;
35632;SDS011;21754;48.216;-1.628;2022-10-22T08:11:58;24.70;;;5.75;;
35632;SDS011;21754;48.216;-1.628;2022-10-22T08:14:24;19.40;;;4.85;;
35632;SDS011;21754;48.216;-1.628;2022-10-22T08:16:50;21.88;;;5.07;;
35632;SDS011;21754;48.216;-1.628;2022-10-22T08:19:16;22.00;;;6.63;;
35632;SDS011;21754;48.216;-1.628;2022-10-22T08:21:45;17.92;;;5.53;;
35632;SDS011;21754;48.216;-1.628;2022-10-22T08:24:11;17.58;;;4.45;;
35632;SDS011;21754;48.216;-1.628;2022-10-22T08:26:37;21.92;;;6.30;;
35632;SDS011;21754;48.216;-1.628;2022-10-22T08:29:03;39.28;;;6.05;;
35632;SDS011;21754;48.216;-1.628;2022-10-22T08:31:29;25.23;;;6.70;;
35632;SDS011;21754;48.216;-1.628;2022-10-22T08:33:55;37.30;;;6.88;;
35632;SDS011;21754;48.216;-1.628;2022-10-22T08:36:21;25.13;;;5.13;;
35632;SDS011;21754;48.216;-1.628;2022-10-22T08:38:47;19.67;;;5.35;;
35632;SDS011;21754;48.216;-1.628;2022-10-22T08:41:17;24.70;;;6.00;;
35632;SDS011;21754;48.216;-1.628;2022-10-22T08:43:46;15.63;;;4.43;;
35632;SDS011;21754;48.216;-1.628;2022-10-22T08:48:55;17.88;;;5.00;;
35632;SDS011;21754;48.216;-1.628;2022-10-22T08:51:23;24.02;;;6.00;;
35632;SDS011;21754;48.216;-1.628;2022-10-22T08:56:16;22.77;;;6.43;;
35632;SDS011;21754;48.216;-1.628;2022-10-22T08:58:56;24.17;;;4.70;;
35632;SDS011;21754;48.216;-1.628;2022-10-22T09:01:34;22.52;;;6.25;;
35632;SDS011;21754;48.216;-1.628;2022-10-22T09:06:28;28.67;;;3.85;;
35632;SDS011;21754;48.216;-1.628;2022-10-22T09:08:56;15.57;;;5.05;;
35632;SDS011;21754;48.216;-1.628;2022-10-22T09:11:27;21.75;;;4.75;;
35632;SDS011;21754;48.216;-1.628;2022-10-22T09:13:55;20.80;;;4.18;;
35632;SDS011;21754;48.216;-1.628;2022-10-22T09:19:24;14.07;;;4.57;;
35632;SDS011;21754;48.216;-1.628;2022-10-22T09:22:07;10.75;;;3.42;;
35632;SDS011;21754;48.216;-1.628;2022-10-22T09:26:55;16.50;;;3.70;;
35632;SDS011;21754;48.216;-1.628;2022-10-22T09:29:22;22.52;;;4.15;;
35632;SDS011;21754;48.216;-1.628;2022-10-22T09:31:49;15.60;;;3.78;;
35632;SDS011;21754;48.216;-1.628;2022-10-22T09:34:19;14.43;;;2.97;;
35632;SDS011;21754;48.216;-1.628;2022-10-22T09:36:45;17.67;;;3.78;;
35632;SDS011;21754;48.216;-1.628;2022-10-22T09:39:21;20.98;;;4.22;;
35632;SDS011;21754;48.216;-1.628;2022-10-22T09:41:47;13.65;;;3.38;;
35632;SDS011;21754;48.216;-1.628;2022-10-22T09:44:14;17.55;;;4.57;;
35632;SDS011;21754;48.216;-1.628;2022-10-22T09:46:40;10.00;;;2.33;;
35632;SDS011;21754;48.216;-1.628;2022-10-22T09:49:10;17.90;;;4.93;;
35632;SDS011;21754;48.216;-1.628;2022-10-22T09:54:12;11.65;;;3.45;;
35632;SDS011;21754;48.216;-1.628;2022-10-22T09:56:39;23.10;;;3.30;;
35632;SDS011;21754;48.216;-1.628;2022-10-22T09:59:12;15.50;;;4.30;;
35632;SDS011;21754;48.216;-1.628;2022-10-22T10:01:39;11.45;;;3.50;;
35632;SDS011;21754;48.216;-1.628;2022-10-22T10:04:06;19.48;;;4.13;;
35632;SDS011;21754;48.216;-1.628;2022-10-22T10:08:58;17.05;;;4.80;;
35632;SDS011;21754;48.216;-1.628;2022-10-22T10:11:28;17.75;;;4.05;;
35632;SDS011;21754;48.216;-1.628;2022-10-22T10:14:07;15.70;;;4.65;;
35632;SDS011;21754;48.216;-1.628;2022-10-22T10:19:38;11.38;;;4.25;;
35632;SDS011;21754;48.216;-1.628;2022-10-22T10:24:39;12.70;;;3.17;;
35632;SDS011;21754;48.216;-1.628;2022-10-22T10:27:11;15.93;;;4.88;;
35632;SDS011;21754;48.216;-1.628;2022-10-22T10:32:29;11.57;;;3.00;;
35632;SDS011;21754;48.216;-1.628;2022-10-22T10:35:02;15.40;;;4.43;;
35632;SDS011;21754;48.216;-1.628;2022-10-22T10:37:40;20.35;;;6.15;;
35632;SDS011;21754;48.216;-1.628;2022-10-22T10:45:16;14.60;;;3.53;;
35632;SDS011;21754;48.216;-1.628;2022-10-22T10:53:03;16.45;;;3.63;;
35632;SDS011;21754;48.216;-1.628;2022-10-22T10:55:37;19.63;;;4.20;;
35632;SDS011;21754;48.216;-1.628;2022-10-22T11:00:31;10.77;;;2.05;;
35632;SDS011;21754;48.216;-1.628;2022-10-22T11:03:15;8.52;;;2.00;;
35632;SDS011;21754;48.216;-1.628;2022-10-22T11:11:25;15.35;;;3.30;;
35632;SDS011;21754;48.216;-1.628;2022-10-22T11:13:42;11.15;;;1.92;;
35632;SDS011;21754;48.216;-1.628;2022-10-22T11:18:43;11.52;;;2.05;;
35632;SDS011;21754;48.216;-1.628;2022-10-22T11:26:12;8.10;;;2.58;;
35632;SDS011;21754;48.216;-1.628;2022-10-22T11:28:41;14.43;;;2.13;;
35632;SDS011;21754;48.216;-1.628;2022-10-22T11:31:10;18.67;;;3.75;;
35632;SDS011;21754;48.216;-1.628;2022-10-22T11:33:41;20.20;;;4.18;;
35632;SDS011;21754;48.216;-1.628;2022-10-22T11:36:10;15.48;;;2.08;;
35632;SDS011;21754;48.216;-1.628;2022-10-22T11:38:36;24.60;;;3.85;;
35632;SDS011;21754;48.216;-1.628;2022-10-22T11:41:09;8.30;;;1.63;;
35632;SDS011;21754;48.216;-1.628;2022-10-22T11:49:13;4.00;;;1.40;;
35632;SDS011;21754;48.216;-1.628;2022-10-22T11:51:41;18.40;;;3.60;;
35632;SDS011;21754;48.216;-1.628;2022-10-22T11:56:56;10.73;;;3.25;;
35632;SDS011;21754;48.216;-1.628;2022-10-22T11:59:36;15.85;;;2.45;;
35632;SDS011;21754;48.216;-1.628;2022-10-22T12:02:19;7.93;;;1.80;;
35632;SDS011;21754;48.216;-1.628;2022-10-22T12:04:46;11.88;;;1.92;;
35632;SDS011;21754;48.216;-1.628;2022-10-22T12:07:46;12.13;;;1.60;;
35632;SDS011;21754;48.216;-1.628;2022-10-22T12:10:20;8.80;;;1.20;;
35632;SDS011;21754;48.216;-1.628;2022-10-22T12:13:50;10.52;;;1.88;;
35632;SDS011;21754;48.216;-1.628;2022-10-22T12:15:48;8.32;;;2.28;;
35632;SDS011;21754;48.216;-1.628;2022-10-22T12:18:16;4.53;;;1.20;;
35632;SDS011;21754;48.216;-1.628;2022-10-22T12:20:42;7.78;;;1.48;;
35632;SDS011;21754;48.216;-1.628;2022-10-22T12:23:11;6.30;;;1.55;;
35632;SDS011;21754;48.216;-1.628;2022-10-22T12:25:38;8.25;;;2.60;;
35632;SDS011;21754;48.216;-1.628;2022-10-22T12:28:08;8.10;;;2.05;;
35632;SDS011;21754;48.216;-1.628;2022-10-22T12:30:35;9.07;;;2.97;;
35632;SDS011;21754;48.216;-1.628;2022-10-22T12:33:02;10.32;;;3.08;;
35632;SDS011;21754;48.216;-1.628;2022-10-22T12:35:30;12.35;;;2.00;;
35632;SDS011;21754;48.216;-1.628;2022-10-22T12:40:23;9.18;;;1.55;;
35632;SDS011;21754;48.216;-1.628;2022-10-22T12:42:50;4.03;;;1.65;;
35632;SDS011;21754;48.216;-1.628;2022-10-22T12:45:17;6.20;;;2.15;;
35632;SDS011;21754;48.216;-1.628;2022-10-22T12:47:47;7.80;;;1.77;;
35632;SDS011;21754;48.216;-1.628;2022-10-22T12:50:17;6.53;;;1.25;;
35632;SDS011;21754;48.216;-1.628;2022-10-22T12:52:44;6.25;;;1.90;;
35632;SDS011;21754;48.216;-1.628;2022-10-22T12:55:17;3.88;;;1.48;;
35632;SDS011;21754;48.216;-1.628;2022-10-22T12:57:45;9.23;;;1.80;;
35632;SDS011;21754;48.216;-1.628;2022-10-22T13:00:18;8.18;;;1.48;;
35632;SDS011;21754;48.216;-1.628;2022-10-22T13:02:45;7.10;;;1.70;;
35632;SDS011;21754;48.216;-1.628;2022-10-22T13:05:22;9.48;;;2.58;;
35632;SDS011;21754;48.216;-1.628;2022-10-22T13:07:50;6.05;;;1.67;;
35632;SDS011;21754;48.216;-1.628;2022-10-22T13:10:22;7.13;;;1.63;;
35632;SDS011;21754;48.216;-1.628;2022-10-22T13:12:49;4.72;;;1.50;;
35632;SDS011;21754;48.216;-1.628;2022-10-22T13:17:45;11.75;;;2.10;;
35632;SDS011;21754;48.216;-1.628;2022-10-22T13:20:17;3.95;;;1.65;;
35632;SDS011;21754;48.216;-1.628;2022-10-22T13:25:28;4.55;;;1.27;;
35632;SDS011;21754;48.216;-1.628;2022-10-22T13:27:55;4.72;;;1.17;;
35632;SDS011;21754;48.216;-1.628;2022-10-22T13:32:48;6.20;;;1.30;;
35632;SDS011;21754;48.216;-1.628;2022-10-22T13:35:15;5.28;;;1.20;;
35632;SDS011;21754;48.216;-1.628;2022-10-22T13:40:12;3.03;;;1.15;;
35632;SDS011;21754;48.216;-1.628;2022-10-22T13:42:38;9.00;;;1.33;;
35632;SDS011;21754;48.216;-1.628;2022-10-22T13:45:05;9.85;;;2.42;;
35632;SDS011;21754;48.216;-1.628;2022-10-22T13:47:31;3.10;;;1.73;;
35632;SDS011;21754;48.216;-1.628;2022-10-22T13:49:58;6.88;;;1.63;;
35632;SDS011;21754;48.216;-1.628;2022-10-22T13:52:35;5.05;;;1.83;;
35632;SDS011;21754;48.216;-1.628;2022-10-22T13:55:13;3.22;;;1.05;;
35632;SDS011;21754;48.216;-1.628;2022-10-22T13:57:39;4.97;;;1.50;;
35632;SDS011;21754;48.216;-1.628;2022-10-22T14:00:05;9.27;;;2.13;;
35632;SDS011;21754;48.216;-1.628;2022-10-22T14:02:32;2.85;;;1.23;;
35632;SDS011;21754;48.216;-1.628;2022-10-22T14:04:58;2.83;;;1.88;;
35632;SDS011;21754;48.216;-1.628;2022-10-22T14:07:27;3.40;;;1.52;;
35632;SDS011;21754;48.216;-1.628;2022-10-22T14:09:53;9.55;;;1.27;;
35632;SDS011;21754;48.216;-1.628;2022-10-22T14:12:19;17.35;;;2.42;;
35632;SDS011;21754;48.216;-1.628;2022-10-22T14:14:45;7.78;;;1.48;;
35632;SDS011;21754;48.216;-1.628;2022-10-22T14:17:12;7.43;;;2.30;;
35632;SDS011;21754;48.216;-1.628;2022-10-22T14:19:42;4.10;;;0.82;;
35632;SDS011;21754;48.216;-1.628;2022-10-22T14:22:12;6.88;;;1.45;;
35632;SDS011;21754;48.216;-1.628;2022-10-22T14:24:39;5.65;;;0.98;;
35632;SDS011;21754;48.216;-1.628;2022-10-22T14:27:05;3.13;;;0.98;;
35632;SDS011;21754;48.216;-1.628;2022-10-22T14:29:31;10.98;;;1.30;;
35632;SDS011;21754;48.216;-1.628;2022-10-22T14:31:57;7.45;;;1.00;;
35632;SDS011;21754;48.216;-1.628;2022-10-22T14:34:23;3.80;;;1.45;;
35632;SDS011;21754;48.216;-1.628;2022-10-22T14:36:49;6.93;;;1.60;;
35632;SDS011;21754;48.216;-1.628;2022-10-22T14:39:15;2.90;;;1.35;;
35632;SDS011;21754;48.216;-1.628;2022-10-22T14:41:42;3.20;;;1.27;;
35632;SDS011;21754;48.216;-1.628;2022-10-22T14:44:10;4.18;;;1.15;;
35632;SDS011;21754;48.216;-1.628;2022-10-22T14:46:37;4.82;;;1.20;;
35632;SDS011;21754;48.216;-1.628;2022-10-22T14:49:06;13.18;;;1.67;;
35632;SDS011;21754;48.216;-1.628;2022-10-22T14:51:32;1.48;;;1.15;;
35632;SDS011;21754;48.216;-1.628;2022-10-22T14:53:58;4.07;;;1.30;;
35632;SDS011;21754;48.216;-1.628;2022-10-22T14:56:24;4.32;;;1.55;;
35632;SDS011;21754;48.216;-1.628;2022-10-22T14:58:50;4.80;;;1.20;;
35632;SDS011;21754;48.216;-1.628;2022-10-22T15:01:17;11.60;;;1.10;;
35632;SDS011;21754;48.216;-1.628;2022-10-22T15:03:43;8.27;;;1.20;;
35632;SDS011;21754;48.216;-1.628;2022-10-22T15:06:09;5.95;;;1.75;;
35632;SDS011;21754;48.216;-1.628;2022-10-22T15:08:35;4.72;;;1.33;;
35632;SDS011;21754;48.216;-1.628;2022-10-22T15:11:05;9.60;;;1.63;;
35632;SDS011;21754;48.216;-1.628;2022-10-22T15:13:31;5.10;;;1.88;;
35632;SDS011;21754;48.216;-1.628;2022-10-22T15:15:58;2.28;;;1.10;;
35632;SDS011;21754;48.216;-1.628;2022-10-22T15:18:24;7.32;;;1.33;;
35632;SDS011;21754;48.216;-1.628;2022-10-22T15:20:54;7.85;;;2.45;;
35632;SDS011;21754;48.216;-1.628;2022-10-22T15:23:20;5.57;;;1.60;;
35632;SDS011;21754;48.216;-1.628;2022-10-22T15:25:46;2.97;;;1.02;;
35632;SDS011;21754;48.216;-1.628;2022-10-22T15:28:12;4.25;;;1.35;;
35632;SDS011;21754;48.216;-1.628;2022-10-22T15:30:38;18.00;;;1.67;;
35632;SDS011;21754;48.216;-1.628;2022-10-22T15:33:04;6.85;;;1.35;;
35632;SDS011;21754;48.216;-1.628;2022-10-22T15:35:30;13.50;;;1.75;;
35632;SDS011;21754;48.216;-1.628;2022-10-22T15:37:56;3.95;;;1.90;;
35632;SDS011;21754;48.216;-1.628;2022-10-22T15:40:22;8.15;;;1.52;;
35632;SDS011;21754;48.216;-1.628;2022-10-22T15:42:48;4.72;;;2.15;;
35632;SDS011;21754;48.216;-1.628;2022-10-22T15:45:14;3.50;;;2.03;;
35632;SDS011;21754;48.216;-1.628;2022-10-22T15:47:43;5.20;;;1.38;;
35632;SDS011;21754;48.216;-1.628;2022-10-22T15:50:10;7.05;;;1.48;;
35632;SDS011;21754;48.216;-1.628;2022-10-22T15:52:36;3.35;;;0.90;;
35632;SDS011;21754;48.216;-1.628;2022-10-22T15:55:02;8.90;;;1.83;;
35632;SDS011;21754;48.216;-1.628;2022-10-22T15:57:31;4.75;;;1.27;;
35632;SDS011;21754;48.216;-1.628;2022-10-22T15:59:57;3.42;;;1.70;;
35632;SDS011;21754;48.216;-1.628;2022-10-22T16:02:23;5.68;;;1.38;;
35632;SDS011;21754;48.216;-1.628;2022-10-22T16:04:49;3.38;;;1.13;;
35632;SDS011;21754;48.216;-1.628;2022-10-22T16:07:15;4.47;;;1.42;;
35632;SDS011;21754;48.216;-1.628;2022-10-22T16:09:41;11.82;;;2.20;;
35632;SDS011;21754;48.216;-1.628;2022-10-22T16:12:07;5.35;;;1.05;;
35632;SDS011;21754;48.216;-1.628;2022-10-22T16:14:33;4.18;;;0.95;;
35632;SDS011;21754;48.216;-1.628;2022-10-22T16:16:59;11.32;;;1.35;;